createdAt,value
2023-05-10T00:00:55.997Z,76.50
2023-05-10T00:03:23.181Z,76.40
2023-05-10T00:05:51.300Z,77.90
2023-05-10T00:08:19.933Z,79.20
2023-05-10T00:10:46.698Z,78.50
2023-05-10T00:13:13.647Z,79.30
2023-05-10T00:15:40.666Z,79.80
2023-05-10T00:18:07.373Z,79.70
2023-05-10T00:20:36.896Z,80.00
2023-05-10T00:23:03.837Z,80.90
2023-05-10T00:25:30.785Z,80.80
2023-05-10T00:27:58.876Z,81.00
2023-05-10T00:30:27.921Z,81.40
2023-05-10T00:32:54.639Z,81.80
2023-05-10T00:35:29.977Z,82.40
2023-05-10T00:37:56.745Z,82.90
2023-05-10T00:40:23.831Z,83.00
2023-05-10T00:42:53.372Z,82.90
2023-05-10T00:45:20.262Z,82.80
2023-05-10T00:47:47.534Z,82.20
2023-05-10T00:50:17.511Z,83.00
2023-05-10T00:52:44.900Z,82.80
2023-05-10T00:55:12.508Z,82.50
2023-05-10T00:57:40.740Z,82.80
2023-05-10T01:00:07.655Z,82.00
2023-05-10T01:02:35.049Z,83.10
2023-05-10T01:05:03.258Z,82.60
2023-05-10T01:07:30.156Z,82.60
2023-05-10T01:09:57.261Z,83.00
2023-05-10T01:12:24.944Z,82.20
2023-05-10T01:14:51.817Z,82.80
2023-05-10T01:17:20.798Z,82.70
2023-05-10T01:19:47.479Z,83.70
2023-05-10T01:22:30.438Z,84.30
2023-05-10T01:24:57.274Z,83.90
2023-05-10T01:27:42.790Z,84.50
2023-05-10T01:30:27.676Z,84.80
2023-05-10T01:33:00.507Z,84.90
2023-05-10T01:35:34.269Z,84.70
2023-05-10T01:38:07.269Z,84.70
2023-05-10T01:40:38.651Z,84.50
2023-05-10T01:43:09.327Z,84.30
2023-05-10T01:45:50.410Z,84.80
2023-05-10T01:48:21.758Z,84.60
2023-05-10T01:50:49.423Z,84.60
2023-05-10T01:53:19.655Z,84.30
2023-05-10T01:55:48.407Z,85.00
2023-05-10T01:58:16.471Z,85.20
2023-05-10T02:00:47.316Z,85.10
2023-05-10T02:03:15.905Z,85.50
2023-05-10T02:05:45.842Z,85.70
2023-05-10T02:08:13.169Z,85.40
2023-05-10T02:10:40.278Z,85.00
2023-05-10T02:13:08.467Z,84.60
2023-05-10T02:15:36.038Z,84.30
2023-05-10T02:18:03.658Z,84.20
2023-05-10T02:20:32.569Z,84.30
2023-05-10T02:22:59.599Z,84.20
2023-05-10T02:25:26.847Z,84.60
2023-05-10T02:27:56.139Z,84.10
2023-05-10T02:30:23.858Z,85.00
2023-05-10T02:32:51.531Z,84.50
2023-05-10T02:35:18.775Z,84.50
2023-05-10T02:37:47.468Z,84.50
2023-05-10T02:40:15.539Z,84.00
2023-05-10T02:42:43.380Z,84.70
2023-05-10T02:45:13.377Z,85.30
2023-05-10T02:47:40.277Z,85.10
2023-05-10T02:50:07.428Z,85.30
2023-05-10T02:52:39.848Z,85.50
2023-05-10T02:55:07.147Z,85.60
2023-05-10T02:57:34.936Z,85.80
2023-05-10T03:00:03.019Z,85.50
2023-05-10T03:02:31.451Z,85.40
2023-05-10T03:05:00.655Z,85.30
2023-05-10T03:07:27.628Z,86.20
2023-05-10T03:09:54.269Z,85.60
2023-05-10T03:12:28.186Z,86.40
2023-05-10T03:14:57.825Z,86.30
2023-05-10T03:17:24.764Z,86.10
2023-05-10T03:19:56.003Z,86.50
2023-05-10T03:22:27.413Z,86.50
2023-05-10T03:24:58.567Z,86.50
2023-05-10T03:27:26.531Z,86.40
2023-05-10T03:29:54.348Z,86.80
2023-05-10T03:32:21.545Z,86.70
2023-05-10T03:34:48.182Z,86.90
2023-05-10T03:37:14.832Z,86.50
2023-05-10T03:39:41.758Z,86.80
2023-05-10T03:42:08.602Z,86.90
2023-05-10T03:44:35.309Z,86.70
2023-05-10T03:47:02.290Z,86.80
2023-05-10T03:49:29.079Z,86.70
2023-05-10T03:51:55.689Z,87.10
2023-05-10T03:54:22.512Z,87.30
2023-05-10T03:56:49.153Z,86.80
2023-05-10T03:59:15.990Z,86.90
2023-05-10T04:01:43.123Z,86.90
2023-05-10T04:04:09.806Z,86.70
2023-05-10T04:06:36.499Z,86.60
2023-05-10T04:09:05.377Z,86.80
2023-05-10T04:11:33.516Z,87.00
2023-05-10T04:14:00.283Z,87.20
2023-05-10T04:16:26.982Z,86.90
2023-05-10T04:18:53.851Z,86.90
2023-05-10T04:21:20.531Z,86.70
2023-05-10T04:23:47.552Z,86.60
2023-05-10T04:26:14.557Z,86.60
2023-05-10T04:28:41.627Z,87.00
2023-05-10T04:31:08.954Z,86.80
2023-05-10T04:33:36.875Z,86.30
2023-05-10T04:36:04.295Z,86.80
2023-05-10T04:38:31.803Z,86.70
2023-05-10T04:41:05.540Z,86.70
2023-05-10T04:43:32.179Z,86.70
2023-05-10T04:45:59.202Z,86.70
2023-05-10T04:48:25.910Z,86.90
2023-05-10T04:50:53.248Z,86.90
2023-05-10T04:53:19.918Z,86.80
2023-05-10T04:55:48.541Z,86.90
2023-05-10T04:58:15.607Z,86.70
2023-05-10T05:00:42.896Z,86.80
2023-05-10T05:03:09.852Z,86.70
2023-05-10T05:05:36.580Z,86.80
2023-05-10T05:08:05.054Z,86.50
2023-05-10T05:10:31.706Z,86.80
2023-05-10T05:12:58.609Z,86.60
2023-05-10T05:15:25.358Z,86.80
2023-05-10T05:17:52.832Z,86.70
2023-05-10T05:20:21.223Z,86.80
2023-05-10T05:22:48.145Z,86.60
2023-05-10T05:25:16.059Z,86.70
2023-05-10T05:27:43.121Z,86.50
2023-05-10T05:30:10.026Z,86.50
2023-05-10T05:32:37.035Z,86.60
2023-05-10T05:35:03.847Z,86.40
2023-05-10T05:37:30.561Z,86.40
2023-05-10T05:39:58.729Z,86.30
2023-05-10T05:42:25.347Z,86.40
2023-05-10T05:44:53.355Z,86.00
2023-05-10T05:47:20.102Z,86.00
2023-05-10T05:49:47.050Z,85.50
2023-05-10T05:52:15.033Z,85.30
2023-05-10T05:54:42.034Z,85.40
2023-05-10T05:57:08.824Z,85.20
2023-05-10T05:59:35.625Z,84.90
2023-05-10T06:02:02.566Z,85.20
2023-05-10T06:04:30.007Z,84.70
2023-05-10T06:06:57.022Z,84.90
2023-05-10T06:09:25.495Z,84.60
2023-05-10T06:11:52.290Z,84.40
2023-05-10T06:14:20.975Z,84.70
2023-05-10T06:16:47.777Z,84.70
2023-05-10T06:19:15.089Z,84.70
2023-05-10T06:21:42.019Z,84.40
2023-05-10T06:24:08.787Z,84.40
2023-05-10T06:26:35.412Z,83.90
2023-05-10T06:29:02.538Z,84.00
2023-05-10T06:31:29.163Z,84.10
2023-05-10T06:33:56.815Z,84.40
2023-05-10T06:36:25.839Z,84.50
2023-05-10T06:38:52.457Z,84.30
2023-05-10T06:41:23.864Z,84.30
2023-05-10T06:43:51.776Z,84.20
2023-05-10T06:46:21.203Z,84.30
2023-05-10T06:48:47.834Z,84.00
2023-05-10T06:51:16.861Z,83.10
2023-05-10T06:53:43.487Z,83.20
2023-05-10T06:56:13.318Z,82.60
2023-05-10T06:58:42.438Z,82.60
2023-05-10T07:01:13.151Z,82.50
2023-05-10T07:03:39.911Z,82.20
2023-05-10T07:06:21.758Z,82.10
2023-05-10T07:08:58.006Z,82.30
2023-05-10T07:11:24.744Z,82.80
2023-05-10T07:13:51.718Z,82.90
2023-05-10T07:16:18.380Z,82.50
2023-05-10T07:18:45.130Z,82.60
2023-05-10T07:21:11.827Z,82.60
2023-05-10T07:23:43.658Z,82.00
2023-05-10T07:26:12.600Z,82.80
2023-05-10T07:28:40.103Z,83.30
2023-05-10T07:31:06.834Z,83.10
2023-05-10T07:33:33.736Z,82.10
2023-05-10T07:36:01.335Z,82.70
2023-05-10T07:38:29.371Z,82.10
2023-05-10T07:40:56.365Z,80.80
2023-05-10T07:43:22.974Z,81.60
2023-05-10T07:45:51.615Z,81.40
2023-05-10T07:48:19.422Z,80.40
2023-05-10T07:50:46.489Z,81.90
2023-05-10T07:53:14.614Z,81.80
2023-05-10T07:55:41.520Z,81.30
2023-05-10T07:58:08.204Z,82.10
2023-05-10T08:00:35.067Z,81.40
2023-05-10T08:03:04.007Z,81.30
2023-05-10T08:05:30.815Z,81.00
2023-05-10T08:07:57.505Z,81.30
2023-05-10T08:10:25.384Z,81.80
2023-05-10T08:12:52.255Z,79.20
2023-05-10T08:15:21.106Z,80.40
2023-05-10T08:17:49.311Z,80.40
2023-05-10T08:20:18.529Z,79.40
2023-05-10T08:22:50.004Z,80.80
2023-05-10T08:25:18.820Z,80.20
2023-05-10T08:27:45.968Z,81.40
2023-05-10T08:30:13.933Z,80.20
2023-05-10T08:32:43.121Z,80.70
2023-05-10T08:35:11.124Z,79.50
2023-05-10T08:37:37.718Z,80.00
2023-05-10T08:40:04.539Z,80.30
2023-05-10T08:42:31.459Z,80.00
2023-05-10T08:44:59.836Z,80.40
2023-05-10T08:47:26.772Z,79.00
2023-05-10T08:49:54.337Z,79.10
2023-05-10T08:52:22.080Z,79.50
2023-05-10T08:54:49.057Z,78.40
2023-05-10T08:57:16.358Z,78.60
2023-05-10T08:59:43.037Z,78.90
2023-05-10T09:02:11.417Z,78.50
2023-05-10T09:04:38.157Z,77.90
2023-05-10T09:07:07.645Z,75.80
2023-05-10T09:09:35.124Z,76.90
2023-05-10T09:12:01.871Z,75.70
2023-05-10T09:14:28.641Z,74.40
2023-05-10T09:16:56.560Z,74.80
2023-05-10T09:19:25.090Z,74.00
2023-05-10T09:21:52.048Z,73.60
2023-05-10T09:24:18.966Z,74.10
2023-05-10T09:26:52.363Z,73.50
2023-05-10T09:29:19.486Z,73.20
2023-05-10T09:31:53.043Z,72.30
2023-05-10T09:34:20.801Z,71.80
2023-05-10T09:36:55.043Z,67.40
2023-05-10T09:39:22.526Z,68.20
2023-05-10T09:41:50.552Z,67.00
2023-05-10T09:44:18.946Z,66.40
2023-05-10T09:46:49.544Z,66.20
2023-05-10T09:49:16.269Z,66.80
2023-05-10T09:51:42.995Z,63.70
2023-05-10T09:54:16.566Z,64.60
2023-05-10T09:56:43.726Z,65.80
2023-05-10T09:59:11.599Z,64.60
2023-05-10T10:01:39.803Z,63.60
2023-05-10T10:04:07.511Z,63.10
2023-05-10T10:06:38.605Z,61.20
2023-05-10T10:09:05.978Z,61.60
2023-05-10T10:11:33.952Z,64.80
2023-05-10T10:14:00.898Z,62.00
2023-05-10T10:16:30.699Z,61.80
2023-05-10T10:18:57.867Z,63.70
2023-05-10T10:21:25.049Z,63.70
2023-05-10T10:23:52.883Z,60.90
2023-05-10T10:26:22.252Z,61.70
2023-05-10T10:28:50.998Z,60.10
2023-05-10T10:31:44.164Z,60.40
2023-05-10T10:34:18.758Z,58.90
2023-05-10T10:36:47.077Z,58.00
2023-05-10T10:39:14.669Z,57.40
2023-05-10T10:41:50.909Z,60.00
2023-05-10T10:44:28.394Z,57.60
2023-05-10T10:47:12.516Z,58.10
2023-05-10T10:49:44.733Z,58.90
2023-05-10T10:52:22.885Z,56.30
2023-05-10T10:54:53.634Z,60.00
2023-05-10T10:57:22.626Z,62.30
2023-05-10T10:59:49.888Z,64.90
2023-05-10T11:02:36.322Z,66.60
2023-05-10T11:05:22.537Z,66.90
2023-05-10T11:07:56.204Z,68.60
2023-05-10T11:10:23.310Z,69.20
2023-05-10T11:13:03.298Z,68.40
2023-05-10T11:15:31.690Z,69.90
2023-05-10T11:17:58.749Z,68.20
2023-05-10T11:20:33.971Z,66.30
2023-05-10T11:23:13.192Z,63.80
2023-05-10T11:25:44.112Z,63.50
2023-05-10T11:28:11.561Z,66.30
2023-05-10T11:30:42.308Z,68.40
2023-05-10T11:33:10.013Z,69.10
2023-05-10T11:35:43.451Z,69.40
2023-05-10T11:38:11.084Z,70.60
2023-05-10T11:40:38.295Z,72.30
2023-05-10T11:43:06.793Z,71.90
2023-05-10T11:45:34.312Z,72.70
2023-05-10T11:48:01.353Z,72.60
2023-05-10T11:50:28.532Z,69.40
2023-05-10T11:52:55.935Z,70.70
2023-05-10T11:55:23.274Z,73.00
2023-05-10T11:57:54.877Z,72.50
2023-05-10T12:00:26.316Z,73.00
2023-05-10T12:02:53.083Z,72.90
2023-05-10T12:05:20.182Z,72.90
2023-05-10T12:07:46.849Z,71.40
2023-05-10T12:10:19.011Z,72.80
2023-05-10T12:12:54.342Z,73.00
2023-05-10T12:15:25.012Z,73.20
2023-05-10T12:17:52.091Z,73.40
2023-05-10T12:20:20.277Z,73.70
2023-05-10T12:23:01.559Z,71.80
2023-05-10T12:25:32.321Z,73.10
2023-05-10T12:28:01.696Z,72.70
2023-05-10T12:30:30.163Z,73.90
2023-05-10T12:33:01.360Z,73.60
2023-05-10T12:35:30.970Z,71.90
2023-05-10T12:37:57.602Z,71.50
2023-05-10T12:40:25.648Z,72.70
2023-05-10T12:42:53.085Z,72.10
2023-05-10T12:45:20.290Z,70.40
2023-05-10T12:47:47.140Z,71.00
2023-05-10T12:50:15.097Z,71.60
2023-05-10T12:52:42.136Z,71.00
2023-05-10T12:55:10.080Z,70.70
2023-05-10T12:57:37.066Z,71.20
2023-05-10T13:00:03.862Z,71.20
2023-05-10T13:02:33.054Z,72.00
2023-05-10T13:05:00.796Z,70.20
2023-05-10T13:07:28.026Z,70.90
2023-05-10T13:09:54.909Z,71.60
2023-05-10T13:12:21.655Z,70.90
2023-05-10T13:14:49.235Z,71.20
2023-05-10T13:17:16.400Z,70.20
2023-05-10T13:19:43.513Z,70.40
2023-05-10T13:22:12.492Z,70.70
2023-05-10T13:24:39.329Z,71.90
2023-05-10T13:27:06.165Z,72.40
2023-05-10T13:29:34.068Z,71.50
2023-05-10T13:32:01.257Z,72.50
2023-05-10T13:34:29.210Z,72.90
2023-05-10T13:36:57.088Z,73.10
2023-05-10T13:39:25.070Z,73.20
2023-05-10T13:41:55.841Z,73.60
2023-05-10T13:44:23.786Z,75.20
2023-05-10T13:46:50.960Z,73.60
2023-05-10T13:49:23.453Z,73.40
2023-05-10T13:51:50.138Z,74.20
2023-05-10T13:54:18.392Z,74.20
2023-05-10T13:56:45.687Z,72.80
2023-05-10T13:59:14.196Z,72.10
2023-05-10T14:01:41.614Z,71.80
2023-05-10T14:04:11.176Z,72.50
2023-05-10T14:06:42.541Z,72.30
2023-05-10T14:09:16.608Z,71.20
2023-05-10T14:11:44.249Z,71.30
2023-05-10T14:14:10.934Z,70.00
2023-05-10T14:16:37.717Z,70.00
2023-05-10T14:19:04.618Z,69.70
2023-05-10T14:21:31.985Z,69.20
2023-05-10T14:23:58.671Z,70.70
2023-05-10T14:26:30.248Z,71.40
2023-05-10T14:29:00.356Z,71.80
2023-05-10T14:31:29.195Z,73.00
2023-05-10T14:33:59.793Z,73.40
2023-05-10T14:36:27.975Z,73.70
2023-05-10T14:38:54.659Z,74.00
2023-05-10T14:41:21.556Z,74.50
2023-05-10T14:43:48.365Z,75.50
2023-05-10T14:46:26.605Z,74.50
2023-05-10T14:48:53.413Z,75.20
2023-05-10T14:51:22.681Z,75.80
2023-05-10T14:53:50.264Z,75.60
2023-05-10T14:56:17.241Z,77.70
2023-05-10T14:58:45.655Z,77.30
2023-05-10T15:01:12.296Z,77.60
2023-05-10T15:03:40.942Z,78.20
2023-05-10T15:06:09.296Z,78.10
2023-05-10T15:08:35.949Z,78.10
2023-05-10T15:11:02.798Z,79.10
2023-05-10T15:13:29.649Z,77.80
2023-05-10T15:15:56.478Z,77.80
2023-05-10T15:18:26.058Z,79.40
2023-05-10T15:20:53.111Z,79.10
2023-05-10T15:23:19.709Z,79.40
2023-05-10T15:25:47.419Z,79.50
2023-05-10T15:28:14.528Z,79.30
2023-05-10T15:30:41.179Z,78.80
2023-05-10T15:33:08.740Z,79.60
2023-05-10T15:35:36.991Z,78.80
2023-05-10T15:38:04.510Z,78.80
2023-05-10T15:40:31.343Z,79.70
2023-05-10T15:42:59.365Z,79.70
2023-05-10T15:45:27.918Z,78.70
2023-05-10T15:47:54.781Z,79.30
2023-05-10T15:50:21.407Z,78.80
2023-05-10T15:52:48.289Z,79.70
2023-05-10T15:55:17.992Z,79.40
2023-05-10T15:57:45.118Z,80.20
2023-05-10T16:00:13.031Z,79.30
2023-05-10T16:02:42.910Z,79.40
2023-05-10T16:05:09.894Z,80.20
2023-05-10T16:07:36.569Z,80.70
2023-05-10T16:10:08.270Z,80.70
2023-05-10T16:12:35.170Z,81.10
2023-05-10T16:15:05.596Z,81.00
2023-05-10T16:17:32.936Z,80.30
2023-05-10T16:20:00.052Z,80.90
2023-05-10T16:22:31.055Z,79.70
2023-05-10T16:25:00.849Z,80.70
2023-05-10T16:27:30.571Z,81.30
2023-05-10T16:29:57.456Z,81.00
2023-05-10T16:32:24.800Z,80.50
2023-05-10T16:34:53.659Z,80.50
2023-05-10T16:37:22.077Z,80.90
2023-05-10T16:39:48.734Z,81.30
2023-05-10T16:42:18.320Z,81.40
2023-05-10T16:44:45.719Z,81.30
2023-05-10T16:47:12.664Z,81.90
2023-05-10T16:49:41.063Z,81.70
2023-05-10T16:52:07.745Z,81.80
2023-05-10T16:54:34.736Z,80.50
2023-05-10T16:57:02.406Z,80.90
2023-05-10T16:59:29.284Z,81.60
2023-05-10T17:01:57.224Z,81.30
2023-05-10T17:04:24.926Z,81.70
2023-05-10T17:06:52.797Z,81.80
2023-05-10T17:09:20.611Z,81.50
2023-05-10T17:11:47.462Z,81.70
2023-05-10T17:14:16.044Z,82.40
2023-05-10T17:16:46.785Z,82.70
2023-05-10T17:19:13.834Z,82.30
2023-05-10T17:21:40.861Z,82.40
2023-05-10T17:24:07.645Z,81.80
2023-05-10T17:26:37.731Z,82.40
2023-05-10T17:29:05.900Z,82.80
2023-05-10T17:31:35.265Z,82.00
2023-05-10T17:34:05.312Z,83.10
2023-05-10T17:36:32.811Z,82.80
2023-05-10T17:39:01.383Z,82.60
2023-05-10T17:41:28.762Z,83.00
2023-05-10T17:43:55.586Z,83.70
2023-05-10T17:46:22.836Z,83.00
2023-05-10T17:48:51.737Z,83.40
2023-05-10T17:51:18.718Z,83.40
2023-05-10T17:53:46.765Z,83.20
2023-05-10T17:56:13.374Z,83.80
2023-05-10T17:58:40.730Z,83.50
2023-05-10T18:01:07.822Z,83.90
2023-05-10T18:03:35.891Z,84.00
2023-05-10T18:06:03.170Z,83.80
2023-05-10T18:08:30.704Z,83.40
2023-05-10T18:10:57.694Z,83.70
2023-05-10T18:13:26.513Z,83.50
2023-05-10T18:15:54.315Z,83.90
2023-05-10T18:18:21.156Z,84.10
2023-05-10T18:20:48.588Z,82.80
2023-05-10T18:23:15.564Z,83.70
2023-05-10T18:25:44.520Z,84.10
2023-05-10T18:28:11.657Z,84.40
2023-05-10T18:30:38.823Z,83.80
2023-05-10T18:33:06.781Z,84.30
2023-05-10T18:35:35.435Z,84.30
2023-05-10T18:38:03.498Z,84.40
2023-05-10T18:40:31.872Z,85.30
2023-05-10T18:43:00.513Z,84.90
2023-05-10T18:45:27.342Z,84.50
2023-05-10T18:47:54.256Z,84.30
2023-05-10T18:50:21.495Z,83.80
2023-05-10T18:52:48.449Z,84.70
2023-05-10T18:55:15.258Z,84.80
2023-05-10T18:57:42.498Z,84.70
2023-05-10T19:00:10.591Z,84.90
2023-05-10T19:02:38.117Z,85.10
2023-05-10T19:05:05.125Z,84.90
2023-05-10T19:07:32.184Z,84.70
2023-05-10T19:09:59.018Z,84.90
2023-05-10T19:12:26.076Z,85.40
2023-05-10T19:14:54.260Z,84.80
2023-05-10T19:17:24.428Z,84.70
2023-05-10T19:19:53.973Z,85.00
2023-05-10T19:22:35.390Z,85.30
2023-05-10T19:25:10.062Z,86.00
2023-05-10T19:27:38.680Z,85.70
2023-05-10T19:30:07.150Z,85.90
2023-05-10T19:32:34.440Z,86.30
2023-05-10T19:35:01.154Z,85.90
2023-05-10T19:37:29.130Z,85.60
2023-05-10T19:39:55.772Z,86.20
2023-05-10T19:42:24.008Z,86.00
2023-05-10T19:44:51.360Z,86.10
2023-05-10T19:47:18.026Z,85.60
2023-05-10T19:49:44.918Z,85.50
2023-05-10T19:52:14.597Z,85.80
2023-05-10T19:54:41.836Z,86.20
2023-05-10T19:57:12.154Z,85.70
2023-05-10T19:59:42.027Z,85.60
2023-05-10T20:02:09.003Z,85.50
2023-05-10T20:04:35.767Z,85.90
2023-05-10T20:07:02.528Z,85.70
2023-05-10T20:09:29.145Z,85.70
2023-05-10T20:11:56.461Z,85.00
2023-05-10T20:14:23.201Z,85.40
2023-05-10T20:16:49.882Z,85.60
2023-05-10T20:19:17.751Z,85.50
2023-05-10T20:21:45.147Z,85.50
2023-05-10T20:24:12.108Z,85.70
2023-05-10T20:26:38.705Z,85.60
2023-05-10T20:29:06.140Z,85.60
2023-05-10T20:31:35.514Z,85.50
2023-05-10T20:34:02.278Z,85.80
2023-05-10T20:36:30.584Z,85.40
2023-05-10T20:38:57.205Z,85.40
2023-05-10T20:41:24.763Z,85.90
2023-05-10T20:43:51.532Z,86.40
2023-05-10T20:46:18.296Z,85.80
2023-05-10T20:48:46.092Z,86.20
2023-05-10T20:51:13.255Z,86.70
2023-05-10T20:53:39.899Z,86.30
2023-05-10T20:56:09.096Z,85.90
2023-05-10T20:58:35.966Z,85.80
2023-05-10T21:01:02.689Z,86.30
2023-05-10T21:03:29.819Z,86.10
2023-05-10T21:05:56.537Z,85.70
2023-05-10T21:08:23.358Z,86.10
2023-05-10T21:10:50.192Z,86.00
2023-05-10T21:13:18.239Z,86.40
2023-05-10T21:15:44.964Z,85.80
2023-05-10T21:18:11.999Z,85.80
2023-05-10T21:20:38.914Z,85.90
2023-05-10T21:23:05.812Z,85.70
2023-05-10T21:25:33.194Z,86.00
2023-05-10T21:27:59.771Z,85.80
2023-05-10T21:30:26.800Z,85.70
2023-05-10T21:32:59.714Z,86.00
2023-05-10T21:35:26.771Z,86.10
2023-05-10T21:37:53.612Z,85.70
2023-05-10T21:40:20.743Z,86.10
2023-05-10T21:42:50.715Z,86.10
2023-05-10T21:45:20.367Z,86.70
2023-05-10T21:47:47.324Z,86.20
2023-05-10T21:50:14.008Z,86.00
2023-05-10T21:52:41.080Z,86.00
2023-05-10T21:55:09.837Z,86.40
2023-05-10T21:57:37.677Z,86.40
2023-05-10T22:00:06.970Z,86.50
2023-05-10T22:02:33.935Z,86.40
2023-05-10T22:05:01.489Z,86.80
2023-05-10T22:07:30.461Z,86.70
2023-05-10T22:09:57.270Z,87.00
2023-05-10T22:12:24.024Z,87.00
2023-05-10T22:15:06.475Z,87.00
2023-05-10T22:17:37.621Z,87.20
2023-05-10T22:20:04.974Z,87.10
2023-05-10T22:22:31.617Z,87.30
2023-05-10T22:24:59.615Z,87.10
2023-05-10T22:27:26.637Z,87.10
2023-05-10T22:29:53.314Z,87.10
2023-05-10T22:32:20.080Z,87.20
2023-05-10T22:34:48.413Z,87.20
2023-05-10T22:37:18.053Z,87.10
2023-05-10T22:39:48.644Z,87.30
2023-05-10T22:42:17.020Z,87.30
2023-05-10T22:44:47.863Z,87.20
2023-05-10T22:47:14.986Z,87.10
2023-05-10T22:49:41.916Z,87.30
2023-05-10T22:52:11.660Z,87.20
2023-05-10T22:54:38.266Z,87.10
2023-05-10T22:57:05.464Z,87.10
2023-05-10T22:59:32.677Z,86.90
2023-05-10T23:01:59.598Z,87.30
2023-05-10T23:04:26.937Z,87.00
2023-05-10T23:06:53.672Z,87.30
2023-05-10T23:09:20.515Z,87.10
2023-05-10T23:11:47.364Z,87.30
2023-05-10T23:14:14.306Z,87.10
2023-05-10T23:16:41.219Z,87.40
2023-05-10T23:19:07.917Z,87.30
2023-05-10T23:21:37.619Z,87.20
2023-05-10T23:24:04.462Z,87.00
2023-05-10T23:26:31.359Z,87.20
2023-05-10T23:28:58.044Z,87.00
2023-05-10T23:31:26.219Z,87.10
2023-05-10T23:33:52.922Z,87.00
2023-05-10T23:36:19.822Z,86.90
2023-05-10T23:38:46.844Z,86.80
2023-05-10T23:41:14.722Z,86.80
2023-05-10T23:43:41.382Z,87.20
2023-05-10T23:46:08.126Z,87.40
2023-05-10T23:48:35.293Z,87.20
2023-05-10T23:51:02.001Z,87.20
2023-05-10T23:53:31.816Z,87.30
2023-05-10T23:55:58.454Z,87.20
2023-05-10T23:58:26.818Z,87.40
